DLH2AC ESGG-EDDF
Flight info
| Callsign | DLH2AC |
|---|---|
| Flight time | N/A |
| Altitude | 35000 |
| Route | TOPLA L996 ERNOV DCT NIKDA/N0447F380 DCT NOBRI DCT BUMIL DCT HLZ DCT RIMET/N0466F310 T157 KOKEB/N0426F230 T157 KERAX KERAX5A |
| Aircraft | A319/M-SDE3FGHIRWY/LB1 |
Departure
| Time | N/A |
|---|---|
| Airport | Göteborg Landvetter Airport (ESGG) |
Arrival
| Time | 2026-05-03 20:32 |
|---|---|
| Airport | Frankfurt Main Airport (EDDF) |
| Time | Latitude | Longitude | Altitude | Speed | Heading |
|---|---|---|---|---|---|
| 2026-05-03 20:15 | 50.71152 | 9.80497 | 19394 ft | 422 kts | 212° |
| 2026-05-03 20:15 | 50.68634 | 9.78105 | 19157 ft | 421 kts | 212° |
| 2026-05-03 20:15 | 50.66125 | 9.75729 | 18918 ft | 420 kts | 212° |
| 2026-05-03 20:15 | 50.63624 | 9.73364 | 18683 ft | 419 kts | 212° |
| 2026-05-03 20:16 | 50.61121 | 9.71001 | 18446 ft | 418 kts | 212° |
| 2026-05-03 20:16 | 50.58629 | 9.68654 | 18206 ft | 417 kts | 212° |
| 2026-05-03 20:16 | 50.56176 | 9.66344 | 17948 ft | 415 kts | 212° |
| 2026-05-03 20:16 | 50.53696 | 9.64008 | 17678 ft | 414 kts | 213° |
| 2026-05-03 20:17 | 50.51372 | 9.61371 | 17410 ft | 411 kts | 221° |
| 2026-05-03 20:17 | 50.49338 | 9.58235 | 17056 ft | 410 kts | 229° |
| 2026-05-03 20:17 | 50.47631 | 9.54686 | 16268 ft | 405 kts | 237° |
| 2026-05-03 20:17 | 50.46297 | 9.50812 | 15515 ft | 402 kts | 245° |
| 2026-05-03 20:18 | 50.45337 | 9.46719 | 14773 ft | 399 kts | 252° |
| 2026-05-03 20:18 | 50.44563 | 9.42558 | 14058 ft | 396 kts | 252° |
| 2026-05-03 20:18 | 50.43783 | 9.38429 | 13296 ft | 393 kts | 252° |
| 2026-05-03 20:18 | 50.43003 | 9.34343 | 12509 ft | 390 kts | 251° |
| 2026-05-03 20:19 | 50.42226 | 9.30289 | 11755 ft | 387 kts | 251° |
| 2026-05-03 20:19 | 50.41456 | 9.26274 | 11099 ft | 381 kts | 251° |
| 2026-05-03 20:19 | 50.40666 | 9.22334 | 10365 ft | 377 kts | 250° |
| 2026-05-03 20:19 | 50.39802 | 9.18469 | 9618 ft | 373 kts | 248° |
| 2026-05-03 20:20 | 50.38907 | 9.14691 | 8834 ft | 367 kts | 248° |
| 2026-05-03 20:20 | 50.38011 | 9.10976 | 8070 ft | 361 kts | 248° |
| 2026-05-03 20:20 | 50.37134 | 9.07326 | 7346 ft | 355 kts | 248° |
| 2026-05-03 20:20 | 50.36282 | 9.03745 | 7068 ft | 349 kts | 248° |
| 2026-05-03 20:21 | 50.35439 | 9.00174 | 6964 ft | 348 kts | 248° |
| 2026-05-03 20:21 | 50.34439 | 8.96735 | 6980 ft | 346 kts | 235° |
| 2026-05-03 20:21 | 50.32827 | 8.94069 | 6653 ft | 339 kts | 217° |
| 2026-05-03 20:21 | 50.30692 | 8.92464 | 5788 ft | 339 kts | 196° |
| 2026-05-03 20:22 | 50.28338 | 8.92284 | 4970 ft | 343 kts | 175° |
| 2026-05-03 20:22 | 50.26078 | 8.93557 | 4253 ft | 353 kts | 152° |
| 2026-05-03 20:22 | 50.24346 | 8.96085 | 4035 ft | 337 kts | 129° |
| 2026-05-03 20:22 | 50.23166 | 8.99058 | 3985 ft | 306 kts | 124° |
| 2026-05-03 20:23 | 50.22168 | 9.01803 | 3992 ft | 276 kts | 124° |
| 2026-05-03 20:23 | 50.21165 | 9.04137 | 3982 ft | 240 kts | 143° |
| 2026-05-03 20:23 | 50.19839 | 9.05319 | 4002 ft | 209 kts | 172° |
| 2026-05-03 20:23 | 50.18452 | 9.05411 | 4003 ft | 193 kts | 196° |
| 2026-05-03 20:24 | 50.17284 | 9.04654 | 3989 ft | 174 kts | 218° |
| 2026-05-03 20:24 | 50.16458 | 9.03338 | 3998 ft | 168 kts | 238° |
| 2026-05-03 20:24 | 50.15983 | 9.01676 | 4000 ft | 169 kts | 248° |
| 2026-05-03 20:24 | 50.15584 | 8.99958 | 4004 ft | 168 kts | 249° |
| 2026-05-03 20:25 | 50.15186 | 8.98248 | 4013 ft | 168 kts | 249° |
| 2026-05-03 20:25 | 50.14788 | 8.96547 | 4012 ft | 167 kts | 249° |
| 2026-05-03 20:25 | 50.14389 | 8.94842 | 4004 ft | 168 kts | 248° |
| 2026-05-03 20:25 | 50.13987 | 8.93126 | 4010 ft | 168 kts | 248° |
| 2026-05-03 20:26 | 50.13591 | 8.91436 | 4009 ft | 168 kts | 248° |
| 2026-05-03 20:26 | 50.13189 | 8.89723 | 4015 ft | 168 kts | 248° |
| 2026-05-03 20:26 | 50.12787 | 8.88014 | 4018 ft | 168 kts | 249° |
| 2026-05-03 20:26 | 50.12386 | 8.86306 | 4019 ft | 168 kts | 249° |
| 2026-05-03 20:27 | 50.11983 | 8.84595 | 4021 ft | 168 kts | 248° |
| 2026-05-03 20:27 | 50.11581 | 8.82888 | 4020 ft | 168 kts | 248° |
| 2026-05-03 20:27 | 50.11181 | 8.81188 | 4027 ft | 167 kts | 248° |
| 2026-05-03 20:27 | 50.10779 | 8.79486 | 3984 ft | 168 kts | 248° |
| 2026-05-03 20:28 | 50.10375 | 8.77775 | 3817 ft | 168 kts | 249° |
| 2026-05-03 20:28 | 50.09973 | 8.76071 | 3606 ft | 167 kts | 248° |
| 2026-05-03 20:28 | 50.09571 | 8.74371 | 3386 ft | 169 kts | 249° |
| 2026-05-03 20:28 | 50.09165 | 8.72654 | 3148 ft | 169 kts | 249° |
| 2026-05-03 20:29 | 50.08763 | 8.70946 | 2937 ft | 167 kts | 250° |
| 2026-05-03 20:29 | 50.08372 | 8.69302 | 2736 ft | 159 kts | 249° |
| 2026-05-03 20:29 | 50.08003 | 8.67733 | 2453 ft | 154 kts | 250° |
| 2026-05-03 20:29 | 50.07645 | 8.66207 | 2233 ft | 143 kts | 249° |
| 2026-05-03 20:30 | 50.07314 | 8.64812 | 2012 ft | 135 kts | 250° |
| 2026-05-03 20:30 | 50.06992 | 8.63473 | 1821 ft | 131 kts | 249° |
| 2026-05-03 20:30 | 50.06678 | 8.62152 | 1655 ft | 128 kts | 249° |
| 2026-05-03 20:30 | 50.06379 | 8.60874 | 1469 ft | 124 kts | 249° |
| 2026-05-03 20:31 | 50.06072 | 8.59600 | 1320 ft | 131 kts | 249° |
| 2026-05-03 20:31 | 50.05746 | 8.58232 | 1098 ft | 138 kts | 249° |
| 2026-05-03 20:31 | 50.05412 | 8.56839 | 909 ft | 139 kts | 249° |
| 2026-05-03 20:31 | 50.05075 | 8.55414 | 686 ft | 142 kts | 249° |
| 2026-05-03 20:32 | 50.04730 | 8.53979 | 488 ft | 141 kts | 248° |
| 2026-05-03 20:32 | 50.04400 | 8.52572 | 363 ft | 131 kts | 246° |
| 2026-05-03 20:32 | 50.04116 | 8.51418 | 331 ft | 91 kts | 250° |
| 2026-05-03 20:32 | 50.03955 | 8.50744 | 325 ft | 44 kts | 248° |
| 2026-05-03 20:33 | 50.03834 | 8.50391 | 321 ft | 34 kts | 227° |
| 2026-05-03 20:33 | 50.03690 | 8.50188 | 320 ft | 14 kts | 218° |
| 2026-05-03 20:33 | 50.03627 | 8.50211 | 324 ft | 9 kts | 131° |
| 2026-05-03 20:33 | 50.03625 | 8.50275 | 325 ft | 0 kts | 66° |
| 2026-05-03 20:34 | 50.03626 | 8.50278 | 325 ft | 2 kts | 66° |
| 2026-05-03 20:34 | 50.03639 | 8.50327 | 325 ft | 8 kts | 69° |
| 2026-05-03 20:34 | 50.03665 | 8.50439 | 324 ft | 14 kts | 70° |
| 2026-05-03 20:35 | 50.03705 | 8.50607 | 330 ft | 20 kts | 70° |
| 2026-05-03 20:35 | 50.03760 | 8.50836 | 332 ft | 26 kts | 69° |
| 2026-05-03 20:35 | 50.03829 | 8.51125 | 334 ft | 32 kts | 70° |
| 2026-05-03 20:35 | 50.03912 | 8.51470 | 334 ft | 35 kts | 69° |
| 2026-05-03 20:36 | 50.03994 | 8.51819 | 337 ft | 34 kts | 70° |
| 2026-05-03 20:36 | 50.04077 | 8.52157 | 349 ft | 33 kts | 69° |
| 2026-05-03 20:36 | 50.04154 | 8.52481 | 347 ft | 31 kts | 70° |
| 2026-05-03 20:36 | 50.04229 | 8.52799 | 354 ft | 32 kts | 70° |
| 2026-05-03 20:37 | 50.04311 | 8.53141 | 359 ft | 35 kts | 69° |
| 2026-05-03 20:37 | 50.04392 | 8.53486 | 375 ft | 33 kts | 75° |
| 2026-05-03 20:37 | 50.04418 | 8.53864 | 375 ft | 37 kts | 84° |
| 2026-05-03 20:37 | 50.04446 | 8.54288 | 375 ft | 41 kts | 84° |
| 2026-05-03 20:38 | 50.04429 | 8.54592 | 365 ft | 28 kts | 116° |
| 2026-05-03 20:38 | 50.04262 | 8.54804 | 358 ft | 36 kts | 163° |
| 2026-05-03 20:38 | 50.04025 | 8.54934 | 355 ft | 22 kts | 158° |
| 2026-05-03 20:38 | 50.03889 | 8.55015 | 355 ft | 22 kts | 160° |
| 2026-05-03 20:39 | 50.03835 | 8.55087 | 349 ft | 8 kts | 66° |
| 2026-05-03 20:39 | 50.03863 | 8.55169 | 351 ft | 10 kts | 71° |
| 2026-05-03 20:39 | 50.03895 | 8.55308 | 349 ft | 18 kts | 70° |
| 2026-05-03 20:39 | 50.03940 | 8.55499 | 356 ft | 19 kts | 69° |
| 2026-05-03 20:40 | 50.03986 | 8.55694 | 351 ft | 19 kts | 70° |
| 2026-05-03 20:40 | 50.04031 | 8.55880 | 354 ft | 12 kts | 69° |
| 2026-05-03 20:40 | 50.04034 | 8.55893 | 353 ft | 0 kts | 69° |
| 2026-05-03 20:41 | 50.04035 | 8.55896 | 352 ft | 1 kts | 69° |
| 2026-05-03 20:41 | 50.04044 | 8.55932 | 358 ft | 6 kts | 69° |
| 2026-05-03 20:42 | 50.04063 | 8.56012 | 353 ft | 10 kts | 69° |
| 2026-05-03 20:42 | 50.04090 | 8.56122 | 355 ft | 9 kts | 69° |
| 2026-05-03 20:42 | 50.04112 | 8.56216 | 358 ft | 11 kts | 70° |
| 2026-05-03 20:42 | 50.04165 | 8.56284 | 353 ft | 12 kts | 341° |
| 2026-05-03 20:43 | 50.04256 | 8.56231 | 361 ft | 16 kts | 340° |
| 2026-05-03 20:43 | 50.04297 | 8.56145 | 358 ft | 8 kts | 248° |
| 2026-05-03 20:43 | 50.04345 | 8.56057 | 358 ft | 23 kts | 336° |
| 2026-05-03 20:43 | 50.04446 | 8.56089 | 356 ft | 14 kts | 69° |
| 2026-05-03 20:44 | 50.04481 | 8.56236 | 356 ft | 15 kts | 69° |
| 2026-05-03 20:44 | 50.04517 | 8.56386 | 359 ft | 15 kts | 68° |
| 2026-05-03 20:44 | 50.04570 | 8.56471 | 358 ft | 7 kts | 82° |
| 2026-05-03 20:44 | 50.04547 | 8.56539 | 358 ft | 7 kts | 115° |
| 2026-05-03 20:45 | 50.04534 | 8.56580 | 359 ft | 2 kts | 115° |
| 2026-05-03 20:45 | 50.04532 | 8.56589 | 358 ft | 0 kts | 115° |